Lacy Lakeview, Texas
Current Conditions -  °F | °C
As of 5:52 PM on Friday 19 Dec 2014 (Local Time) from KCNW Reporting Station
Overcast Overcast  
Wind Chill: 44°   Ceiling: 1600
Heat Index: 48°   Visibility: 7mi
Dew Point: 48°   Wind: 9mph
Humidity: 100%   Direction: 340°NNW
Pressure: 30.16"   Gusts: NA
Location:  31.6031°N, 97.0805°W
Report Text: KCNW 192352Z 34008KT 7SM OVC016 09/09 A3016
Loading
Personal Weather Stations






























Interactive Weather Map New forecast layout! Learn more

10-Day Weather Forecast

Advertisements
Track Severe Weather on mobile